Time;durP1;ratioP1;P1;durP2;ratioP2;P2;SDS_P1;SDS_P2;PMS_P1;PMS_P2;Temp;Humidity;BMP_temperature;BMP_pressure;BME280_temperature;BME280_humidity;BME280_pressure;Samples;Min_cycle;Max_cycle;Signal;HPM_P1;HPM_P2
2024/01/15 00:01:48;;;;;;;71.40;16.40;;;;;;;;;;5103622;28;20035;-55
2024/01/15 00:04:14;;;;;;;53.45;13.93;;;;;;;;;;5104180;28;20324;-56
2024/01/15 00:06:41;;;;;;;56.78;12.57;;;;;;;;;;5104497;28;20028;-56
2024/01/15 00:09:08;;;;;;;72.30;13.95;;;;;;;;;;5104229;28;20369;-56
2024/01/15 00:11:34;;;;;;;305.55;26.25;;;;;;;;;;5104489;28;20034;-56
2024/01/15 00:14:01;;;;;;;79.40;13.13;;;;;;;;;;5104130;28;20024;-55
2024/01/15 00:16:27;;;;;;;45.80;11.57;;;;;;;;;;5104170;28;20091;-57
2024/01/15 00:18:54;;;;;;;35.45;11.40;;;;;;;;;;5104016;28;20028;-56
2024/01/15 00:21:21;;;;;;;31.88;11.10;;;;;;;;;;5104251;28;20025;-56
2024/01/15 00:23:47;;;;;;;21.77;10.40;;;;;;;;;;5103817;28;20070;-54
2024/01/15 00:26:15;;;;;;;30.63;10.85;;;;;;;;;;5104132;28;20036;-51
2024/01/15 00:28:41;;;;;;;24.45;9.95;;;;;;;;;;5103891;28;20020;-55
2024/01/15 00:31:08;;;;;;;18.95;9.38;;;;;;;;;;5103848;28;20024;-56
2024/01/15 00:33:35;;;;;;;42.42;10.20;;;;;;;;;;5104209;28;20016;-55
2024/01/15 00:36:03;;;;;;;38.63;10.95;;;;;;;;;;5104081;28;20030;-55
2024/01/15 00:38:30;;;;;;;24.40;9.98;;;;;;;;;;5103819;28;20198;-54
2024/01/15 00:40:57;;;;;;;23.45;9.85;;;;;;;;;;5106911;28;20024;-65
2024/01/15 00:43:23;;;;;;;50.97;11.75;;;;;;;;;;5107987;28;20020;-53
2024/01/15 00:45:50;;;;;;;22.63;9.52;;;;;;;;;;5107910;28;20057;-59
2024/01/15 00:48:17;;;;;;;20.45;10.65;;;;;;;;;;5107891;28;20299;-57
2024/01/15 00:50:43;;;;;;;23.30;10.32;;;;;;;;;;5107968;28;20028;-61
2024/01/15 00:53:10;;;;;;;17.63;9.77;;;;;;;;;;5107862;28;20050;-64
2024/01/15 00:55:37;;;;;;;21.25;10.07;;;;;;;;;;5107897;28;20335;-59
2024/01/15 00:58:04;;;;;;;31.65;10.63;;;;;;;;;;5107907;28;20020;-62
2024/01/15 01:00:31;;;;;;;26.13;11.02;;;;;;;;;;5107420;28;20336;-59
2024/01/15 01:02:57;;;;;;;39.95;10.90;;;;;;;;;;5108072;28;20251;-59
2024/01/15 01:05:27;;;;;;;34.85;11.05;;;;;;;;;;5107539;28;20019;-60
2024/01/15 01:07:53;;;;;;;25.50;10.05;;;;;;;;;;5107548;28;20328;-58
2024/01/15 01:10:20;;;;;;;21.30;10.05;;;;;;;;;;5107612;28;20126;-59
2024/01/15 01:12:47;;;;;;;24.48;9.55;;;;;;;;;;5107875;28;20012;-61
2024/01/15 01:15:13;;;;;;;34.75;10.52;;;;;;;;;;5107661;28;20073;-62
2024/01/15 01:17:40;;;;;;;32.10;9.80;;;;;;;;;;5107420;28;20020;-59
2024/01/15 01:20:09;;;;;;;23.48;9.82;;;;;;;;;;5107711;28;20023;-59
2024/01/15 01:22:35;;;;;;;19.95;9.55;;;;;;;;;;5108328;28;20024;-59
2024/01/15 01:25:02;;;;;;;18.98;9.30;;;;;;;;;;5107496;28;20211;-59
2024/01/15 01:27:31;;;;;;;17.13;8.88;;;;;;;;;;5108189;28;20027;-62
2024/01/15 01:29:58;;;;;;;20.40;9.68;;;;;;;;;;5107699;28;20016;-61
2024/01/15 01:32:25;;;;;;;14.63;8.95;;;;;;;;;;5107789;28;20027;-61
2024/01/15 01:34:54;;;;;;;20.33;9.48;;;;;;;;;;5107399;28;20083;-60
2024/01/15 01:37:21;;;;;;;16.77;9.43;;;;;;;;;;5107481;28;20031;-62
2024/01/15 01:39:47;;;;;;;25.10;9.77;;;;;;;;;;5107140;28;20028;-60
2024/01/15 01:42:14;;;;;;;25.38;9.05;;;;;;;;;;5107453;28;20051;-58
2024/01/15 01:44:40;;;;;;;13.30;8.63;;;;;;;;;;5107024;28;20023;-62
2024/01/15 01:47:08;;;;;;;13.57;8.63;;;;;;;;;;5107234;28;20026;-60
2024/01/15 01:49:47;;;;;;;19.45;9.25;;;;;;;;;;5106923;28;20134;-58
2024/01/15 01:52:14;;;;;;;17.73;9.30;;;;;;;;;;5105398;28;20020;-59
2024/01/15 01:54:41;;;;;;;15.18;9.23;;;;;;;;;;5106557;28;20084;-60
2024/01/15 01:57:08;;;;;;;15.85;9.30;;;;;;;;;;5106724;28;20050;-61
2024/01/15 01:59:35;;;;;;;17.80;9.05;;;;;;;;;;5106532;28;20051;-57
2024/01/15 02:02:03;;;;;;;15.23;9.20;;;;;;;;;;5106492;28;20043;-62
2024/01/15 02:04:39;;;;;;;18.20;9.43;;;;;;;;;;5106937;28;20016;-61
2024/01/15 02:07:06;;;;;;;14.93;9.60;;;;;;;;;;5106446;28;20020;-63
2024/01/15 02:09:33;;;;;;;14.00;9.40;;;;;;;;;;5106978;28;20235;-58
2024/01/15 02:12:00;;;;;;;12.63;8.55;;;;;;;;;;5106302;28;20034;-58
2024/01/15 02:14:26;;;;;;;15.18;9.48;;;;;;;;;;5106073;28;20354;-67
2024/01/15 02:16:53;;;;;;;14.10;9.05;;;;;;;;;;5106249;28;20032;-63
2024/01/15 02:19:20;;;;;;;17.40;9.63;;;;;;;;;;5106670;28;20188;-57
2024/01/15 02:21:46;;;;;;;15.65;9.57;;;;;;;;;;5104839;28;20077;-57
2024/01/15 02:24:13;;;;;;;15.70;9.32;;;;;;;;;;5106489;28;20075;-57
2024/01/15 02:26:40;;;;;;;12.93;9.07;;;;;;;;;;5106032;28;20026;-59
2024/01/15 02:29:11;;;;;;;17.35;9.32;;;;;;;;;;5101035;28;20026;-58
2024/01/15 02:31:37;;;;;;;14.15;9.52;;;;;;;;;;5094591;28;20035;-58
2024/01/15 02:34:04;;;;;;;14.77;10.13;;;;;;;;;;5087811;28;20296;-59
2024/01/15 02:36:31;;;;;;;13.60;9.55;;;;;;;;;;5085396;28;20024;-59
2024/01/15 02:38:57;;;;;;;21.65;10.45;;;;;;;;;;5105165;28;20099;-57
2024/01/15 02:41:24;;;;;;;19.30;10.40;;;;;;;;;;5099221;28;20058;-59
2024/01/15 02:43:51;;;;;;;16.02;10.20;;;;;;;;;;5099093;28;20031;-60
2024/01/15 02:46:17;;;;;;;43.05;11.93;;;;;;;;;;5102390;28;20312;-59
2024/01/15 02:48:44;;;;;;;25.80;10.38;;;;;;;;;;5100189;28;20024;-60
2024/01/15 02:51:10;;;;;;;23.25;10.55;;;;;;;;;;5099139;28;20016;-58
2024/01/15 02:53:37;;;;;;;19.63;10.77;;;;;;;;;;5103624;28;20031;-58
2024/01/15 02:56:04;;;;;;;17.02;10.70;;;;;;;;;;5104698;28;20092;-60
2024/01/15 02:58:31;;;;;;;25.00;10.77;;;;;;;;;;5105166;28;20035;-63
2024/01/15 03:00:58;;;;;;;18.27;9.95;;;;;;;;;;5105091;28;20047;-60
2024/01/15 03:03:24;;;;;;;14.95;10.55;;;;;;;;;;5105572;28;20035;-56
2024/01/15 03:05:51;;;;;;;17.15;10.13;;;;;;;;;;5100029;28;20028;-57
2024/01/15 03:08:17;;;;;;;15.20;10.48;;;;;;;;;;5105529;28;20208;-59
2024/01/15 03:10:44;;;;;;;16.25;10.80;;;;;;;;;;5105659;28;20020;-58
2024/01/15 03:13:10;;;;;;;14.57;10.30;;;;;;;;;;5104983;28;20034;-67
2024/01/15 03:15:37;;;;;;;33.85;11.93;;;;;;;;;;5103185;28;20078;-56
2024/01/15 03:18:04;;;;;;;20.20;11.07;;;;;;;;;;5104966;28;20033;-58
2024/01/15 03:20:31;;;;;;;18.65;10.32;;;;;;;;;;5087306;28;20027;-58
2024/01/15 03:22:58;;;;;;;20.88;10.65;;;;;;;;;;5084608;28;20162;-57
2024/01/15 03:25:24;;;;;;;13.80;10.25;;;;;;;;;;5084649;28;20185;-57
2024/01/15 03:27:51;;;;;;;15.02;9.73;;;;;;;;;;5084515;28;20031;-58
2024/01/15 03:30:17;;;;;;;13.90;10.68;;;;;;;;;;5084395;28;20075;-57
2024/01/15 03:32:44;;;;;;;15.25;10.00;;;;;;;;;;5084595;28;20020;-59
2024/01/15 03:35:11;;;;;;;16.58;10.77;;;;;;;;;;5084638;28;20023;-59
2024/01/15 03:37:37;;;;;;;14.77;10.48;;;;;;;;;;5084506;28;20300;-60
2024/01/15 03:40:10;;;;;;;14.27;11.73;;;;;;;;;;5095745;28;20020;-57
2024/01/15 03:42:37;;;;;;;17.40;13.80;;;;;;;;;;5125022;28;20261;-58
2024/01/15 03:45:03;;;;;;;20.60;15.63;;;;;;;;;;5125140;28;20208;-58
2024/01/15 03:47:30;;;;;;;21.70;16.52;;;;;;;;;;5125194;28;20300;-58
2024/01/15 03:49:57;;;;;;;20.60;16.63;;;;;;;;;;5124811;28;20189;-60
2024/01/15 03:52:23;;;;;;;22.00;18.10;;;;;;;;;;5120948;28;20031;-57
2024/01/15 03:54:50;;;;;;;22.27;17.17;;;;;;;;;;5104386;28;20031;-62
2024/01/15 03:57:16;;;;;;;21.42;17.02;;;;;;;;;;5084011;28;20038;-62
2024/01/15 03:59:43;;;;;;;20.85;16.02;;;;;;;;;;5083680;28;20232;-59
2024/01/15 04:02:10;;;;;;;25.38;16.08;;;;;;;;;;5097366;28;20042;-64
2024/01/15 04:04:36;;;;;;;20.25;15.38;;;;;;;;;;5104328;28;20030;-59
2024/01/15 04:07:03;;;;;;;19.65;14.48;;;;;;;;;;5104225;28;20020;-59
2024/01/15 04:09:29;;;;;;;21.30;14.98;;;;;;;;;;5104529;28;20249;-60
2024/01/15 04:11:56;;;;;;;21.40;15.68;;;;;;;;;;5104075;28;20024;-57
2024/01/15 04:14:23;;;;;;;19.83;15.85;;;;;;;;;;5104155;28;20097;-59
2024/01/15 04:16:49;;;;;;;16.65;14.45;;;;;;;;;;5104066;28;20036;-59
2024/01/15 04:19:16;;;;;;;20.27;15.48;;;;;;;;;;5104388;28;20028;-59
2024/01/15 04:21:42;;;;;;;17.70;15.57;;;;;;;;;;5103728;28;20031;-58
2024/01/15 04:24:09;;;;;;;19.05;15.23;;;;;;;;;;5104382;28;20027;-58
2024/01/15 04:26:35;;;;;;;17.33;15.38;;;;;;;;;;5103829;28;20348;-62
2024/01/15 04:29:02;;;;;;;23.35;15.63;;;;;;;;;;5104185;28;20283;-56
2024/01/15 04:31:28;;;;;;;20.30;14.85;;;;;;;;;;5103769;28;20024;-57
2024/01/15 04:33:55;;;;;;;17.83;14.85;;;;;;;;;;5104299;28;20028;-57
2024/01/15 04:36:22;;;;;;;18.00;15.48;;;;;;;;;;5103892;28;20290;-57
2024/01/15 04:38:48;;;;;;;21.48;14.27;;;;;;;;;;5104354;28;20088;-60
2024/01/15 04:41:16;;;;;;;17.90;14.55;;;;;;;;;;5103856;28;20028;-57
2024/01/15 04:43:42;;;;;;;17.60;14.90;;;;;;;;;;5103396;28;20024;-57
2024/01/15 04:46:09;;;;;;;18.20;13.98;;;;;;;;;;5103767;28;20023;-60
2024/01/15 04:48:36;;;;;;;17.65;14.10;;;;;;;;;;5103903;28;20028;-58
2024/01/15 04:51:04;;;;;;;18.13;14.40;;;;;;;;;;5103529;28;20024;-58
2024/01/15 04:53:31;;;;;;;17.50;14.70;;;;;;;;;;5103944;28;20060;-59
2024/01/15 04:55:57;;;;;;;21.20;14.65;;;;;;;;;;5103576;28;20076;-63
2024/01/15 04:58:26;;;;;;;17.50;14.25;;;;;;;;;;5103744;28;20034;-56
2024/01/15 05:00:54;;;;;;;18.83;13.93;;;;;;;;;;5103360;28;20282;-55
2024/01/15 05:03:20;;;;;;;17.38;14.02;;;;;;;;;;5103847;28;20126;-54
2024/01/15 05:05:47;;;;;;;16.33;14.05;;;;;;;;;;5103683;28;20308;-55
2024/01/15 05:08:14;;;;;;;16.00;13.57;;;;;;;;;;5103677;28;20027;-57
2024/01/15 05:10:40;;;;;;;22.15;14.43;;;;;;;;;;5103614;28;20020;-56
2024/01/15 05:13:07;;;;;;;16.55;13.20;;;;;;;;;;5103627;28;20364;-59
2024/01/15 05:15:33;;;;;;;24.98;14.32;;;;;;;;;;5103404;28;20445;-56
2024/01/15 05:18:00;;;;;;;17.88;13.88;;;;;;;;;;5103713;28;20069;-60
2024/01/15 05:20:26;;;;;;;19.13;13.82;;;;;;;;;;5103368;28;20024;-60
2024/01/15 05:22:53;;;;;;;17.85;14.45;;;;;;;;;;5103317;28;20024;-62
2024/01/15 05:25:20;;;;;;;17.40;14.23;;;;;;;;;;5103418;28;20316;-57
2024/01/15 05:27:46;;;;;;;20.77;14.60;;;;;;;;;;5106075;28;20031;-57
2024/01/15 05:30:13;;;;;;;19.55;14.43;;;;;;;;;;5106923;28;20311;-62
2024/01/15 05:32:40;;;;;;;18.80;14.85;;;;;;;;;;5107170;28;20024;-59
2024/01/15 05:35:07;;;;;;;19.42;15.73;;;;;;;;;;5107163;28;20024;-60
2024/01/15 05:37:33;;;;;;;19.42;15.60;;;;;;;;;;5106677;28;20085;-62
2024/01/15 05:40:00;;;;;;;21.13;15.95;;;;;;;;;;5106879;28;20208;-64
2024/01/15 05:42:26;;;;;;;18.40;15.95;;;;;;;;;;5106762;28;20020;-59
2024/01/15 05:44:53;;;;;;;19.88;16.45;;;;;;;;;;5106583;28;20016;-60
2024/01/15 05:47:20;;;;;;;21.75;16.52;;;;;;;;;;5106545;28;20038;-60
2024/01/15 05:49:46;;;;;;;23.75;16.50;;;;;;;;;;5106656;28;20023;-60
2024/01/15 05:52:13;;;;;;;23.65;17.20;;;;;;;;;;5106407;28;20422;-60
2024/01/15 05:54:39;;;;;;;22.83;17.35;;;;;;;;;;5106425;28;20016;-58
2024/01/15 05:57:06;;;;;;;19.65;16.63;;;;;;;;;;5106467;28;20075;-57
2024/01/15 05:59:36;;;;;;;19.73;17.30;;;;;;;;;;5106622;28;20106;-64
2024/01/15 06:02:02;;;;;;;20.48;16.55;;;;;;;;;;5106478;28;20339;-56
2024/01/15 06:04:29;;;;;;;20.85;16.42;;;;;;;;;;5106783;28;20024;-57
2024/01/15 06:06:55;;;;;;;18.88;16.70;;;;;;;;;;5106276;28;20027;-57
2024/01/15 06:09:22;;;;;;;21.98;16.95;;;;;;;;;;5106760;28;20032;-63
2024/01/15 06:11:48;;;;;;;18.73;16.70;;;;;;;;;;5106133;28;20284;-59
2024/01/15 06:14:15;;;;;;;20.10;17.42;;;;;;;;;;5106151;28;20201;-63
2024/01/15 06:16:42;;;;;;;20.67;16.42;;;;;;;;;;5106045;28;20077;-63
2024/01/15 06:19:08;;;;;;;21.38;17.23;;;;;;;;;;5106441;28;20081;-61
2024/01/15 06:21:35;;;;;;;21.10;17.42;;;;;;;;;;5105749;28;20050;-61
2024/01/15 06:24:02;;;;;;;21.67;17.15;;;;;;;;;;5106351;28;20040;-59
2024/01/15 06:26:28;;;;;;;21.48;17.55;;;;;;;;;;5105877;28;20023;-58
2024/01/15 06:28:55;;;;;;;22.35;17.40;;;;;;;;;;5106079;28;20065;-61
2024/01/15 06:31:22;;;;;;;18.42;16.45;;;;;;;;;;5105711;28;20028;-62
2024/01/15 06:33:49;;;;;;;21.77;17.95;;;;;;;;;;5123654;28;20031;-58
2024/01/15 06:36:18;;;;;;;21.35;17.38;;;;;;;;;;5126069;28;20031;-55
2024/01/15 06:38:45;;;;;;;22.80;17.67;;;;;;;;;;5125805;28;20031;-63
2024/01/15 06:41:11;;;;;;;20.02;17.15;;;;;;;;;;5125927;28;20320;-58
2024/01/15 06:43:38;;;;;;;20.85;17.48;;;;;;;;;;5126269;28;20208;-56
2024/01/15 06:46:04;;;;;;;19.63;17.48;;;;;;;;;;5125724;28;20012;-57
2024/01/15 06:48:31;;;;;;;19.63;17.10;;;;;;;;;;5126087;28;20242;-56
2024/01/15 06:50:57;;;;;;;19.58;16.67;;;;;;;;;;5125737;28;20023;-55
2024/01/15 06:53:24;;;;;;;23.33;17.15;;;;;;;;;;5125859;28;20035;-56
2024/01/15 06:55:51;;;;;;;20.88;16.77;;;;;;;;;;5125768;28;20069;-57
2024/01/15 06:58:18;;;;;;;19.63;16.67;;;;;;;;;;5125734;28;20034;-56
2024/01/15 07:00:45;;;;;;;21.05;17.65;;;;;;;;;;5125315;28;20142;-59
2024/01/15 07:03:11;;;;;;;21.20;16.65;;;;;;;;;;5125706;28;20299;-57
2024/01/15 07:05:38;;;;;;;21.98;17.27;;;;;;;;;;5125614;28;20185;-57
2024/01/15 07:08:04;;;;;;;26.90;17.38;;;;;;;;;;5125586;28;20023;-56
2024/01/15 07:10:31;;;;;;;19.73;16.90;;;;;;;;;;5125494;28;20012;-56
2024/01/15 07:12:58;;;;;;;20.40;17.38;;;;;;;;;;5125551;28;20358;-54
2024/01/15 07:15:24;;;;;;;20.25;17.02;;;;;;;;;;5125136;28;20350;-62
2024/01/15 07:17:51;;;;;;;21.38;16.67;;;;;;;;;;5125401;28;20015;-55
2024/01/15 07:20:19;;;;;;;21.15;17.55;;;;;;;;;;5125840;28;20074;-57
2024/01/15 07:22:45;;;;;;;20.98;16.13;;;;;;;;;;5125016;28;20055;-55
2024/01/15 07:25:12;;;;;;;19.45;16.45;;;;;;;;;;5125176;28;20011;-56
2024/01/15 07:27:39;;;;;;;19.80;17.17;;;;;;;;;;5125180;28;20046;-62
2024/01/15 07:30:06;;;;;;;18.63;16.65;;;;;;;;;;5124949;28;20015;-56
2024/01/15 07:32:33;;;;;;;23.58;17.08;;;;;;;;;;5124912;28;20024;-56
2024/01/15 07:35:00;;;;;;;20.50;16.75;;;;;;;;;;5124972;28;20084;-56
2024/01/15 07:37:26;;;;;;;21.10;17.77;;;;;;;;;;5124771;28;20023;-57
2024/01/15 07:39:53;;;;;;;25.45;18.10;;;;;;;;;;5124747;28;20335;-63
2024/01/15 07:42:19;;;;;;;19.05;17.05;;;;;;;;;;5124482;28;20256;-57
2024/01/15 07:44:46;;;;;;;20.52;17.65;;;;;;;;;;5124824;28;20039;-59
2024/01/15 07:47:13;;;;;;;21.65;18.10;;;;;;;;;;5124757;28;20016;-59
2024/01/15 07:49:40;;;;;;;21.10;17.33;;;;;;;;;;5123826;28;20011;-60
2024/01/15 07:52:06;;;;;;;21.58;18.02;;;;;;;;;;5124703;28;20082;-58
2024/01/15 07:54:33;;;;;;;20.40;17.30;;;;;;;;;;5125083;28;20034;-55
2024/01/15 07:57:03;;;;;;;20.23;17.65;;;;;;;;;;5124664;28;20020;-55
2024/01/15 07:59:30;;;;;;;20.52;17.10;;;;;;;;;;5124717;28;20027;-54
2024/01/15 08:01:57;;;;;;;20.98;16.73;;;;;;;;;;5124698;28;20049;-57
2024/01/15 08:04:23;;;;;;;23.48;16.50;;;;;;;;;;5124980;28;20087;-57
2024/01/15 08:06:50;;;;;;;22.20;16.75;;;;;;;;;;5124266;28;20241;-57
2024/01/15 08:09:17;;;;;;;22.60;15.93;;;;;;;;;;5124999;28;20024;-62
2024/01/15 08:11:44;;;;;;;22.10;16.25;;;;;;;;;;5124498;28;20076;-56
2024/01/15 08:14:11;;;;;;;20.98;16.42;;;;;;;;;;5124619;28;20050;-60
2024/01/15 08:16:38;;;;;;;20.75;17.20;;;;;;;;;;5124500;28;20247;-60
2024/01/15 08:19:05;;;;;;;21.10;16.73;;;;;;;;;;5124788;28;20304;-59
2024/01/15 08:21:32;;;;;;;22.88;17.00;;;;;;;;;;5124070;28;20027;-55
2024/01/15 08:23:59;;;;;;;21.35;17.95;;;;;;;;;;5124564;28;20015;-55
2024/01/15 08:26:26;;;;;;;22.27;16.90;;;;;;;;;;5124308;28;20027;-59
2024/01/15 08:28:52;;;;;;;19.15;16.38;;;;;;;;;;5124476;28;20061;-61
2024/01/15 08:31:19;;;;;;;18.88;16.27;;;;;;;;;;5124051;28;20023;-58
2024/01/15 08:33:46;;;;;;;19.60;16.27;;;;;;;;;;5124580;28;20300;-58
2024/01/15 08:36:12;;;;;;;18.52;16.02;;;;;;;;;;5124064;28;20030;-57
2024/01/15 08:38:39;;;;;;;19.92;15.32;;;;;;;;;;5124319;28;20173;-58
2024/01/15 08:41:05;;;;;;;19.15;15.40;;;;;;;;;;5124169;28;20195;-60
2024/01/15 08:43:32;;;;;;;20.15;16.08;;;;;;;;;;5124050;28;20015;-56
2024/01/15 08:45:59;;;;;;;22.83;15.85;;;;;;;;;;5123994;28;20075;-58
2024/01/15 08:48:27;;;;;;;22.73;15.93;;;;;;;;;;5124204;28;20019;-59
2024/01/15 08:50:54;;;;;;;17.92;15.30;;;;;;;;;;5123872;28;20031;-61
2024/01/15 08:53:21;;;;;;;18.15;15.05;;;;;;;;;;5124076;28;20023;-60
2024/01/15 08:55:48;;;;;;;17.33;14.88;;;;;;;;;;5123886;28;20015;-57
2024/01/15 08:58:15;;;;;;;18.42;15.20;;;;;;;;;;5124350;28;20028;-58
2024/01/15 09:00:41;;;;;;;20.65;15.35;;;;;;;;;;5124433;28;20119;-58
2024/01/15 09:03:08;;;;;;;16.23;14.50;;;;;;;;;;5128414;28;20023;-62
2024/01/15 09:05:35;;;;;;;19.40;15.18;;;;;;;;;;5127859;28;20023;-57
2024/01/15 09:08:01;;;;;;;20.90;14.93;;;;;;;;;;5128044;28;20030;-64
2024/01/15 09:10:28;;;;;;;18.65;15.25;;;;;;;;;;5128128;28;20022;-63
2024/01/15 09:12:54;;;;;;;19.10;15.10;;;;;;;;;;5127828;28;20049;-62
2024/01/15 09:15:21;;;;;;;21.55;14.98;;;;;;;;;;5127535;28;20027;-64
2024/01/15 09:17:48;;;;;;;18.70;14.95;;;;;;;;;;5127801;28;20397;-59
2024/01/15 09:20:14;;;;;;;17.33;14.90;;;;;;;;;;5127949;28;20323;-58
2024/01/15 09:22:42;;;;;;;16.40;14.23;;;;;;;;;;5127591;28;20072;-60
2024/01/15 09:25:09;;;;;;;16.48;14.40;;;;;;;;;;5127861;28;20016;-60
2024/01/15 09:27:36;;;;;;;17.75;14.52;;;;;;;;;;5126139;28;20028;-58
2024/01/15 09:30:03;;;;;;;18.65;14.07;;;;;;;;;;5127412;28;20024;-62
2024/01/15 09:32:30;;;;;;;19.10;14.63;;;;;;;;;;5127400;28;20020;-59
2024/01/15 09:34:56;;;;;;;16.85;14.05;;;;;;;;;;5127394;28;20037;-61
2024/01/15 09:37:23;;;;;;;18.02;14.93;;;;;;;;;;5127129;28;20019;-65
2024/01/15 09:39:50;;;;;;;20.15;14.30;;;;;;;;;;5127284;28;20011;-62
2024/01/15 09:42:17;;;;;;;19.08;15.13;;;;;;;;;;5126971;28;20019;-59
2024/01/15 09:44:44;;;;;;;18.83;15.27;;;;;;;;;;5127145;28;20015;-58
2024/01/15 09:47:10;;;;;;;18.55;15.07;;;;;;;;;;5127565;28;20015;-56
2024/01/15 09:49:38;;;;;;;21.15;15.80;;;;;;;;;;5126922;28;20019;-61
2024/01/15 09:52:05;;;;;;;25.15;15.13;;;;;;;;;;5126710;28;20054;-55
2024/01/15 09:54:32;;;;;;;31.08;15.45;;;;;;;;;;5127615;28;20160;-63
2024/01/15 09:56:59;;;;;;;25.58;14.52;;;;;;;;;;5127040;28;20076;-57
2024/01/15 09:59:26;;;;;;;19.05;14.35;;;;;;;;;;5127021;28;20090;-56
2024/01/15 10:01:54;;;;;;;19.42;13.55;;;;;;;;;;5126827;28;20027;-61
2024/01/15 10:04:20;;;;;;;16.15;12.82;;;;;;;;;;5127065;28;20330;-54
2024/01/15 10:06:47;;;;;;;14.85;11.77;;;;;;;;;;5126745;28;20016;-57
2024/01/15 10:09:17;;;;;;;15.13;11.13;;;;;;;;;;5126984;28;20095;-58
2024/01/15 10:11:44;;;;;;;13.88;9.68;;;;;;;;;;5126241;28;20030;-65
2024/01/15 10:14:12;;;;;;;14.40;9.80;;;;;;;;;;5125778;28;20027;-56
2024/01/15 10:16:42;;;;;;;12.55;9.02;;;;;;;;;;5126372;28;20267;-61
2024/01/15 10:19:09;;;;;;;11.98;8.77;;;;;;;;;;5126737;28;20055;-54
2024/01/15 10:21:36;;;;;;;10.98;8.20;;;;;;;;;;5126206;28;20069;-55
2024/01/15 10:24:04;;;;;;;9.88;7.93;;;;;;;;;;5126790;28;20019;-55
2024/01/15 10:26:31;;;;;;;10.52;7.82;;;;;;;;;;5126297;28;20036;-58
2024/01/15 10:29:00;;;;;;;9.50;7.60;;;;;;;;;;5126364;28;20026;-56
2024/01/15 10:31:27;;;;;;;9.27;7.60;;;;;;;;;;5126081;28;20035;-57
2024/01/15 10:33:53;;;;;;;12.25;7.72;;;;;;;;;;5126540;28;20038;-58
2024/01/15 10:36:20;;;;;;;9.32;7.45;;;;;;;;;;5126251;28;20064;-62
2024/01/15 10:38:47;;;;;;;10.63;7.07;;;;;;;;;;5126433;27;20070;-59
2024/01/15 10:41:14;;;;;;;11.38;7.47;;;;;;;;;;5125581;28;20051;-56
2024/01/15 10:43:44;;;;;;;10.57;7.63;;;;;;;;;;5126113;28;20079;-57
2024/01/15 10:46:11;;;;;;;13.10;6.97;;;;;;;;;;5125778;28;20028;-62
2024/01/15 10:48:38;;;;;;;17.70;7.82;;;;;;;;;;5126296;28;20079;-55
2024/01/15 10:51:10;;;;;;;11.20;7.57;;;;;;;;;;5126009;28;20046;-56
2024/01/15 10:53:40;;;;;;;18.13;8.02;;;;;;;;;;5126093;28;20207;-58
2024/01/15 10:56:06;;;;;;;13.43;7.60;;;;;;;;;;5125594;28;20031;-59
2024/01/15 10:58:35;;;;;;;13.57;8.35;;;;;;;;;;5125404;28;20030;-57
2024/01/15 11:01:02;;;;;;;22.02;8.63;;;;;;;;;;5125506;28;20206;-60
2024/01/15 11:03:29;;;;;;;21.27;8.57;;;;;;;;;;5125959;28;20200;-57
2024/01/15 11:05:55;;;;;;;21.15;8.48;;;;;;;;;;5125648;28;20050;-60
2024/01/15 11:08:22;;;;;;;28.15;8.82;;;;;;;;;;5125942;28;20030;-60
2024/01/15 11:10:51;;;;;;;24.40;8.68;;;;;;;;;;5109714;28;20030;-62
2024/01/15 11:13:43;;;;;;;20.13;8.70;;;;;;;;;;5093782;28;20032;-57
2024/01/15 11:16:13;;;;;;;26.20;12.20;;;;;;;;;;5083538;28;20040;-61
2024/01/15 11:18:44;;;;;;;50.92;13.45;;;;;;;;;;5089663;28;20308;-50
2024/01/15 11:21:16;;;;;;;68.40;12.27;;;;;;;;;;5084476;28;20076;-53
2024/01/15 11:23:46;;;;;;;31.40;11.05;;;;;;;;;;5100154;28;20207;-61
2024/01/15 11:26:31;;;;;;;21.25;9.25;;;;;;;;;;5104340;28;20023;-60
2024/01/15 11:28:59;;;;;;;24.40;10.60;;;;;;;;;;5104382;28;20306;-58
2024/01/15 11:31:29;;;;;;;22.02;9.90;;;;;;;;;;5104432;28;20023;-55
2024/01/15 11:33:55;;;;;;;19.48;9.27;;;;;;;;;;5101934;28;20087;-58
2024/01/15 11:36:42;;;;;;;23.70;10.57;;;;;;;;;;5104495;28;20027;-60
2024/01/15 11:39:27;;;;;;;17.38;10.90;;;;;;;;;;5103309;28;20114;-64
2024/01/15 11:42:01;;;;;;;19.98;10.80;;;;;;;;;;5102869;28;20027;-59
2024/01/15 11:44:28;;;;;;;16.40;9.70;;;;;;;;;;5103371;28;20031;-60
2024/01/15 11:47:04;;;;;;;17.35;8.85;;;;;;;;;;5102866;28;20012;-55
2024/01/15 11:49:49;;;;;;;16.40;9.05;;;;;;;;;;5103306;28;20051;-54
2024/01/15 11:52:19;;;;;;;20.88;8.57;;;;;;;;;;5102417;28;20016;-57
2024/01/15 11:54:50;;;;;;;19.15;9.13;;;;;;;;;;5102675;28;20299;-55
2024/01/15 11:57:23;;;;;;;28.55;8.80;;;;;;;;;;5103856;28;20208;-56
2024/01/15 11:59:49;;;;;;;26.05;9.00;;;;;;;;;;5098791;28;20067;-61
2024/01/15 12:02:16;;;;;;;20.23;8.77;;;;;;;;;;5097251;28;20020;-57
2024/01/15 12:04:45;;;;;;;23.10;8.60;;;;;;;;;;5102888;28;20074;-61
2024/01/15 12:07:11;;;;;;;16.45;9.32;;;;;;;;;;5103615;28;20015;-58
2024/01/15 12:09:44;;;;;;;21.08;8.52;;;;;;;;;;5104144;28;20335;-60
2024/01/15 12:12:14;;;;;;;15.15;8.35;;;;;;;;;;5104090;28;20328;-56
2024/01/15 12:14:41;;;;;;;29.65;9.07;;;;;;;;;;5104352;28;20031;-60
2024/01/15 12:17:07;;;;;;;24.25;8.90;;;;;;;;;;5104296;28;20043;-57
2024/01/15 12:19:34;;;;;;;16.63;8.00;;;;;;;;;;5103935;28;20024;-55
2024/01/15 12:22:02;;;;;;;19.48;8.63;;;;;;;;;;5104201;28;20069;-56
2024/01/15 12:24:28;;;;;;;16.00;7.85;;;;;;;;;;5104810;28;20308;-59
2024/01/15 12:26:55;;;;;;;34.33;8.75;;;;;;;;;;5104107;28;20272;-56
2024/01/15 12:29:22;;;;;;;38.55;8.73;;;;;;;;;;5104639;28;20296;-56
2024/01/15 12:31:49;;;;;;;21.90;8.80;;;;;;;;;;5104138;28;20379;-60
2024/01/15 12:34:16;;;;;;;15.82;8.70;;;;;;;;;;5104520;28;20020;-60
2024/01/15 12:36:42;;;;;;;24.80;8.10;;;;;;;;;;5106659;28;20024;-59
2024/01/15 12:39:13;;;;;;;19.33;8.55;;;;;;;;;;5108516;28;20023;-62
2024/01/15 12:41:40;;;;;;;16.08;8.18;;;;;;;;;;5107997;28;20212;-59
2024/01/15 12:44:06;;;;;;;20.40;8.63;;;;;;;;;;5108194;28;20090;-58
2024/01/15 12:46:33;;;;;;;16.90;8.25;;;;;;;;;;5108039;28;20041;-60
2024/01/15 12:49:00;;;;;;;12.70;7.88;;;;;;;;;;5108276;28;20083;-58
2024/01/15 12:51:27;;;;;;;12.93;8.00;;;;;;;;;;5107234;28;20028;-55
2024/01/15 12:53:54;;;;;;;56.42;10.60;;;;;;;;;;5094021;28;20040;-60
2024/01/15 12:56:20;;;;;;;28.52;9.48;;;;;;;;;;5093767;28;20074;-56
2024/01/15 12:58:47;;;;;;;24.50;9.52;;;;;;;;;;5106906;28;20028;-60
2024/01/15 13:01:13;;;;;;;33.15;8.68;;;;;;;;;;5107514;28;20043;-57
2024/01/15 13:03:40;;;;;;;29.77;9.45;;;;;;;;;;5108145;28;20092;-55
2024/01/15 13:06:07;;;;;;;22.38;8.45;;;;;;;;;;5107725;28;20043;-57
2024/01/15 13:08:33;;;;;;;26.92;9.48;;;;;;;;;;5107463;28;20016;-58
2024/01/15 13:11:00;;;;;;;19.70;8.13;;;;;;;;;;5107497;28;20319;-55
2024/01/15 13:13:27;;;;;;;20.40;9.32;;;;;;;;;;5107784;28;20066;-62
2024/01/15 13:15:54;;;;;;;19.27;8.68;;;;;;;;;;5107437;28;20024;-57
2024/01/15 13:18:21;;;;;;;20.00;9.02;;;;;;;;;;5107510;28;20323;-58
2024/01/15 13:20:48;;;;;;;23.38;9.00;;;;;;;;;;5107387;28;20040;-59
2024/01/15 13:23:15;;;;;;;16.25;8.13;;;;;;;;;;5107441;28;20020;-57
2024/01/15 13:25:42;;;;;;;17.63;7.68;;;;;;;;;;5107235;28;20047;-58
2024/01/15 13:28:08;;;;;;;23.33;8.57;;;;;;;;;;5107371;28;20050;-58
2024/01/15 13:30:35;;;;;;;15.95;7.60;;;;;;;;;;5107233;28;20034;-59
2024/01/15 13:33:04;;;;;;;14.00;7.70;;;;;;;;;;5107241;28;20016;-58
2024/01/15 13:35:31;;;;;;;14.73;7.50;;;;;;;;;;5107142;28;20050;-58
2024/01/15 13:37:58;;;;;;;16.05;8.25;;;;;;;;;;5107566;28;20083;-56
2024/01/15 13:40:26;;;;;;;16.65;7.97;;;;;;;;;;5106930;28;20070;-60
2024/01/15 13:42:54;;;;;;;17.92;7.85;;;;;;;;;;5107096;28;20311;-60
2024/01/15 13:45:20;;;;;;;19.80;8.10;;;;;;;;;;5106891;28;20129;-55
2024/01/15 13:47:47;;;;;;;17.02;8.15;;;;;;;;;;5105490;28;20023;-63
2024/01/15 13:50:14;;;;;;;23.45;8.18;;;;;;;;;;5106604;28;20016;-56
2024/01/15 13:52:41;;;;;;;21.20;7.75;;;;;;;;;;5105766;28;20421;-60
2024/01/15 13:55:08;;;;;;;18.77;7.55;;;;;;;;;;5106706;28;20039;-57
2024/01/15 13:57:35;;;;;;;18.67;8.30;;;;;;;;;;5106695;28;20020;-56
2024/01/15 14:00:02;;;;;;;14.45;7.78;;;;;;;;;;5106530;28;20271;-57
2024/01/15 14:02:29;;;;;;;16.40;8.23;;;;;;;;;;5106403;28;20027;-61
2024/01/15 14:04:55;;;;;;;20.45;8.35;;;;;;;;;;5106510;28;20032;-60
2024/01/15 14:07:22;;;;;;;20.92;9.23;;;;;;;;;;5106458;28;20061;-59
2024/01/15 14:09:48;;;;;;;17.85;8.77;;;;;;;;;;5106332;28;20048;-54
2024/01/15 14:12:15;;;;;;;20.13;9.25;;;;;;;;;;5106097;28;20360;-55
2024/01/15 14:14:42;;;;;;;17.30;8.57;;;;;;;;;;5106344;28;20095;-60
2024/01/15 14:17:08;;;;;;;16.73;8.60;;;;;;;;;;5106214;28;20073;-61
2024/01/15 14:19:35;;;;;;;12.52;8.48;;;;;;;;;;5106562;28;20027;-57
2024/01/15 14:22:02;;;;;;;13.27;8.13;;;;;;;;;;5106337;28;20047;-59